createdAt,value
2023-01-30T00:00:09.513Z,-0.87
2023-01-30T00:02:36.868Z,-0.59
2023-01-30T00:05:04.538Z,-0.55
2023-01-30T00:07:31.925Z,-0.45
2023-01-30T00:09:59.190Z,-0.43
2023-01-30T00:12:26.490Z,-0.50
2023-01-30T00:14:53.733Z,-0.55
2023-01-30T00:17:21.138Z,-0.43
2023-01-30T00:19:48.414Z,-0.40
2023-01-30T00:22:15.824Z,-0.55
2023-01-30T00:24:43.195Z,-0.74
2023-01-30T00:27:10.616Z,-0.88
2023-01-30T00:29:37.863Z,-0.94
2023-01-30T00:32:05.338Z,-1.03
2023-01-30T00:34:32.914Z,-1.00
2023-01-30T00:37:08.043Z,-0.80
2023-01-30T00:39:35.955Z,-0.81
2023-01-30T00:42:21.844Z,-0.94
2023-01-30T00:45:08.146Z,-1.04
2023-01-30T00:47:35.497Z,-1.03
2023-01-30T00:50:02.768Z,-1.07
2023-01-30T00:52:30.150Z,-1.15
2023-01-30T00:54:57.405Z,-1.30
2023-01-30T00:57:24.790Z,-1.21
2023-01-30T00:59:52.060Z,-1.12
2023-01-30T01:02:19.423Z,-1.05
2023-01-30T01:04:46.689Z,-1.12
2023-01-30T01:07:14.501Z,-1.09
2023-01-30T01:09:42.072Z,-1.01
2023-01-30T01:12:09.586Z,-1.11
2023-01-30T01:14:36.840Z,-1.14
2023-01-30T01:17:04.352Z,-1.18
2023-01-30T01:19:31.676Z,-1.14
2023-01-30T01:21:59.957Z,-1.03
2023-01-30T01:24:27.998Z,-1.00
2023-01-30T01:26:55.389Z,-1.08
2023-01-30T01:29:22.664Z,-1.19
2023-01-30T01:31:50.855Z,-0.98
2023-01-30T01:34:18.162Z,-0.98
2023-01-30T01:36:54.020Z,-1.07
2023-01-30T01:39:22.314Z,-1.08
2023-01-30T01:41:51.065Z,-0.97
2023-01-30T01:44:18.445Z,-0.90
2023-01-30T01:46:52.744Z,-0.76
2023-01-30T01:49:27.875Z,-0.83
2023-01-30T01:52:07.904Z,-0.90
2023-01-30T01:54:47.277Z,-0.80
2023-01-30T01:57:27.434Z,-0.73
2023-01-30T02:00:02.650Z,-0.88
2023-01-30T02:02:41.478Z,-1.15
2023-01-30T02:05:11.382Z,-1.30
2023-01-30T02:07:50.719Z,-1.18
2023-01-30T02:10:23.421Z,-1.18
2023-01-30T02:12:50.983Z,-1.55
2023-01-30T02:15:19.207Z,-1.56
2023-01-30T02:17:46.865Z,-1.72
2023-01-30T02:20:42.098Z,-1.66
2023-01-30T02:23:29.862Z,-1.38
2023-01-30T02:26:25.184Z,-1.32
2023-01-30T02:29:08.954Z,-1.45
2023-01-30T02:31:57.768Z,-1.39
2023-01-30T02:34:47.904Z,-1.35
2023-01-30T02:37:40.671Z,-1.42
2023-01-30T02:40:11.874Z,-1.66
2023-01-30T02:42:46.027Z,-1.72
2023-01-30T02:45:18.479Z,-1.80
2023-01-30T02:47:57.269Z,-1.90
2023-01-30T02:50:26.941Z,-1.86
2023-01-30T02:52:54.698Z,-1.65
2023-01-30T02:55:27.388Z,-1.66
2023-01-30T02:57:57.039Z,-1.65
2023-01-30T03:00:40.802Z,-1.70
2023-01-30T03:03:30.125Z,-1.85
2023-01-30T03:06:09.720Z,-1.97
2023-01-30T03:09:12.525Z,-1.89
2023-01-30T03:11:42.997Z,-1.93
2023-01-30T03:14:45.940Z,-2.01
2023-01-30T03:17:13.308Z,-2.31
2023-01-30T03:19:41.816Z,-2.45
2023-01-30T03:22:09.221Z,-2.27
2023-01-30T03:24:36.499Z,-2.21
2023-01-30T03:27:09.253Z,-2.13
2023-01-30T03:29:37.496Z,-2.08
2023-01-30T03:32:06.255Z,-2.18
2023-01-30T03:34:33.701Z,-2.28
2023-01-30T03:37:01.005Z,-2.40
2023-01-30T03:39:28.460Z,-2.45
2023-01-30T03:41:56.461Z,-2.49
2023-01-30T03:44:23.916Z,-2.54
2023-01-30T03:46:51.313Z,-2.49
2023-01-30T03:49:20.803Z,-2.49
2023-01-30T03:51:48.529Z,-2.44
2023-01-30T03:54:15.949Z,-2.31
2023-01-30T03:56:43.710Z,-2.31
2023-01-30T03:59:11.351Z,-2.34
2023-01-30T04:01:45.129Z,-2.35
2023-01-30T04:04:13.040Z,-2.27
2023-01-30T04:06:40.452Z,-2.28
2023-01-30T04:09:07.783Z,-2.23
2023-01-30T04:11:40.526Z,-2.28
2023-01-30T04:14:07.975Z,-2.33
2023-01-30T04:16:43.884Z,-2.25
2023-01-30T04:19:32.603Z,-2.14
2023-01-30T04:22:00.105Z,-2.11
2023-01-30T04:24:27.430Z,-2.24
2023-01-30T04:26:55.015Z,-2.34
2023-01-30T04:29:22.346Z,-2.33
2023-01-30T04:31:51.801Z,-2.35
2023-01-30T04:34:22.585Z,-2.35
2023-01-30T04:36:50.038Z,-2.49
2023-01-30T04:39:19.424Z,-2.55
2023-01-30T04:41:47.924Z,-2.46
2023-01-30T04:44:15.291Z,-2.66
2023-01-30T04:47:05.571Z,-2.41
2023-01-30T04:49:32.991Z,-2.42
2023-01-30T04:52:01.282Z,-2.44
2023-01-30T04:54:28.659Z,-2.37
2023-01-30T04:56:55.982Z,-2.42
2023-01-30T04:59:23.961Z,-2.42
2023-01-30T05:01:52.385Z,-2.25
2023-01-30T05:04:20.732Z,-2.15
2023-01-30T05:06:48.051Z,-2.45
2023-01-30T05:09:15.446Z,-2.46
2023-01-30T05:11:42.899Z,-2.42
2023-01-30T05:14:10.369Z,-2.38
2023-01-30T05:16:37.753Z,-2.51
2023-01-30T05:19:05.110Z,-2.65
2023-01-30T05:21:32.486Z,-2.65
2023-01-30T05:23:59.955Z,-2.48
2023-01-30T05:26:27.395Z,-2.27
2023-01-30T05:28:55.759Z,-2.61
2023-01-30T05:31:23.229Z,-2.70
2023-01-30T05:33:52.205Z,-2.92
2023-01-30T05:36:20.344Z,-2.75
2023-01-30T05:38:47.695Z,-2.73
2023-01-30T05:41:15.409Z,-2.86
2023-01-30T05:43:43.213Z,-2.85
2023-01-30T05:46:11.397Z,-2.89
2023-01-30T05:48:38.696Z,-2.72
2023-01-30T05:51:06.077Z,-2.56
2023-01-30T05:53:39.675Z,-2.44
2023-01-30T05:56:12.280Z,-2.51
2023-01-30T05:58:39.753Z,-2.44
2023-01-30T06:01:09.802Z,-2.52
2023-01-30T06:03:37.282Z,-2.42
2023-01-30T06:06:05.732Z,-2.55
2023-01-30T06:08:33.904Z,-2.27
2023-01-30T06:11:09.407Z,-2.30
2023-01-30T06:13:37.186Z,-2.33
2023-01-30T06:16:05.886Z,-2.48
2023-01-30T06:18:35.280Z,-2.35
2023-01-30T06:21:03.323Z,-2.25
2023-01-30T06:23:30.820Z,-2.30
2023-01-30T06:25:58.351Z,-2.10
2023-01-30T06:28:26.182Z,-1.98
2023-01-30T06:30:54.381Z,-2.03
2023-01-30T06:33:22.075Z,-2.13
2023-01-30T06:35:50.435Z,-2.25
2023-01-30T06:38:18.218Z,-2.27
2023-01-30T06:40:46.781Z,-2.20
2023-01-30T06:43:14.775Z,-2.21
2023-01-30T06:45:42.045Z,-1.96
2023-01-30T06:48:29.723Z,-1.89
2023-01-30T06:50:57.509Z,-1.85
2023-01-30T06:53:30.585Z,-1.77
2023-01-30T06:55:59.367Z,-1.66
2023-01-30T06:58:30.226Z,-1.72
2023-01-30T07:01:02.598Z,-1.48
2023-01-30T07:03:29.970Z,-1.67
2023-01-30T07:05:57.574Z,-1.75
2023-01-30T07:08:27.382Z,-1.73
2023-01-30T07:10:54.920Z,-1.54
2023-01-30T07:13:22.752Z,-1.32
2023-01-30T07:15:50.714Z,-1.04
2023-01-30T07:18:19.250Z,-0.96
2023-01-30T07:20:48.022Z,-0.86
2023-01-30T07:23:15.949Z,-0.80
2023-01-30T07:25:44.180Z,-0.76
2023-01-30T07:28:11.772Z,-0.77
2023-01-30T07:30:39.401Z,-0.72
2023-01-30T07:33:07.048Z,-0.97
2023-01-30T07:35:36.077Z,-1.09
2023-01-30T07:38:04.412Z,-1.11
2023-01-30T07:40:33.868Z,-1.04
2023-01-30T07:43:05.356Z,-1.05
2023-01-30T07:45:47.775Z,-1.07
2023-01-30T07:48:20.795Z,-1.12
2023-01-30T07:50:48.441Z,-1.07
2023-01-30T07:53:16.998Z,-1.11
2023-01-30T07:56:01.943Z,-1.34
2023-01-30T07:58:36.147Z,-1.28
2023-01-30T08:01:06.204Z,-1.22
2023-01-30T08:03:34.643Z,-1.14
2023-01-30T08:06:02.166Z,-1.17
2023-01-30T08:08:37.504Z,-1.15
2023-01-30T08:11:06.238Z,-1.01
2023-01-30T08:13:34.284Z,-0.93
2023-01-30T08:16:02.759Z,-0.84
2023-01-30T08:18:30.751Z,-0.81
2023-01-30T08:21:08.929Z,-0.90
2023-01-30T08:23:36.489Z,-0.83
2023-01-30T08:26:05.107Z,-0.72
2023-01-30T08:28:32.676Z,-0.74
2023-01-30T08:31:04.958Z,-0.67
2023-01-30T08:33:36.116Z,-0.65
2023-01-30T08:36:03.941Z,-0.43
2023-01-30T08:38:31.343Z,-0.39
2023-01-30T08:41:12.321Z,-0.49
2023-01-30T08:43:40.578Z,-0.29
2023-01-30T08:46:15.858Z,-0.22
2023-01-30T08:48:49.942Z,-0.07
2023-01-30T08:51:18.028Z,-0.14
2023-01-30T08:53:45.346Z,-0.05
2023-01-30T08:56:13.221Z,0.03
2023-01-30T08:58:41.045Z,0.13
2023-01-30T09:01:08.614Z,0.09
2023-01-30T09:03:36.311Z,-0.05
2023-01-30T09:06:04.103Z,-0.02
2023-01-30T09:08:32.943Z,0.07
2023-01-30T09:11:01.379Z,0.29
2023-01-30T09:13:33.933Z,0.33
2023-01-30T09:16:01.521Z,0.36
2023-01-30T09:18:29.076Z,0.44
2023-01-30T09:21:06.124Z,0.40
2023-01-30T09:23:33.567Z,0.54
2023-01-30T09:26:03.167Z,0.71
2023-01-30T09:28:30.879Z,0.57
2023-01-30T09:31:01.349Z,0.64
2023-01-30T09:33:28.993Z,1.06
2023-01-30T09:35:56.492Z,1.40
2023-01-30T09:38:24.280Z,1.80
2023-01-30T09:40:57.638Z,1.73
2023-01-30T09:43:39.948Z,1.91
2023-01-30T09:46:38.279Z,2.02
2023-01-30T09:49:24.736Z,1.90
2023-01-30T09:52:14.902Z,1.80
2023-01-30T09:54:43.534Z,1.67
2023-01-30T09:57:22.505Z,1.77
2023-01-30T10:00:04.817Z,1.81
2023-01-30T10:03:00.338Z,1.66
2023-01-30T10:05:37.516Z,1.49
2023-01-30T10:08:15.369Z,1.70
2023-01-30T10:10:55.019Z,1.77
2023-01-30T10:13:35.264Z,1.75
2023-01-30T10:16:11.343Z,1.82
2023-01-30T10:18:57.146Z,1.90
2023-01-30T10:21:39.785Z,1.74
2023-01-30T10:24:25.407Z,1.42
2023-01-30T10:26:53.080Z,1.49
2023-01-30T10:29:26.837Z,1.44
2023-01-30T10:32:03.212Z,1.68
2023-01-30T10:34:35.687Z,1.90
2023-01-30T10:37:08.862Z,2.02
2023-01-30T10:40:03.133Z,2.40
2023-01-30T10:43:15.636Z,2.60
2023-01-30T10:46:10.468Z,2.53
2023-01-30T10:49:02.269Z,2.48
2023-01-30T10:51:51.435Z,2.19
2023-01-30T10:54:46.127Z,2.01
2023-01-30T10:57:19.355Z,2.07
2023-01-30T11:00:08.243Z,2.02
2023-01-30T11:02:55.606Z,2.15
2023-01-30T11:05:25.440Z,2.45
2023-01-30T11:07:52.943Z,2.49
2023-01-30T11:10:22.902Z,2.24
2023-01-30T11:12:54.461Z,2.21
2023-01-30T11:16:08.410Z,2.15
2023-01-30T11:19:20.833Z,2.18
2023-01-30T11:21:54.858Z,2.19
2023-01-30T11:24:42.161Z,2.24
2023-01-30T11:27:11.864Z,2.38
2023-01-30T11:29:39.686Z,2.38
2023-01-30T11:32:16.132Z,2.32
2023-01-30T11:34:44.138Z,2.25
2023-01-30T11:37:39.327Z,2.24
2023-01-30T11:40:19.915Z,2.28
2023-01-30T11:42:52.200Z,2.21
2023-01-30T11:45:20.410Z,2.25
2023-01-30T11:47:57.917Z,2.46
2023-01-30T11:50:33.347Z,2.42
2023-01-30T11:53:08.720Z,2.38
2023-01-30T11:55:37.359Z,2.35
2023-01-30T11:58:22.825Z,2.57
2023-01-30T12:00:50.648Z,2.52
2023-01-30T12:03:23.455Z,2.38
2023-01-30T12:05:55.691Z,2.42
2023-01-30T12:08:40.989Z,2.38
2023-01-30T12:11:32.582Z,2.28
2023-01-30T12:14:26.177Z,2.29
2023-01-30T12:16:53.731Z,2.36
2023-01-30T12:19:33.089Z,2.57
2023-01-30T12:22:18.875Z,2.64
2023-01-30T12:24:49.344Z,2.63
2023-01-30T12:27:40.536Z,2.81
2023-01-30T12:30:23.145Z,2.56
2023-01-30T12:32:56.110Z,2.89
2023-01-30T12:35:28.728Z,3.01
2023-01-30T12:38:19.422Z,2.87
2023-01-30T12:41:12.086Z,2.87
2023-01-30T12:44:07.520Z,2.86
2023-01-30T12:46:50.851Z,2.46
2023-01-30T12:49:34.516Z,2.57
2023-01-30T12:52:04.777Z,2.52
2023-01-30T12:54:32.126Z,2.40
2023-01-30T12:57:08.322Z,2.40
2023-01-30T12:59:51.726Z,2.69
2023-01-30T13:02:29.271Z,2.84
2023-01-30T13:05:23.647Z,2.84
2023-01-30T13:08:10.071Z,3.00
2023-01-30T13:11:15.868Z,3.32
2023-01-30T13:14:11.961Z,3.39
2023-01-30T13:17:13.574Z,3.59
2023-01-30T13:19:49.287Z,3.75
2023-01-30T13:22:19.554Z,3.75
2023-01-30T13:25:06.127Z,3.83
2023-01-30T13:27:36.021Z,3.62
2023-01-30T13:30:05.882Z,3.60
2023-01-30T13:32:44.785Z,3.75
2023-01-30T13:35:32.784Z,4.04
2023-01-30T13:38:00.450Z,3.90
2023-01-30T13:40:28.930Z,3.91
2023-01-30T13:42:57.413Z,4.06
2023-01-30T13:47:17.619Z,4.01
2023-01-30T13:49:56.643Z,4.04
2023-01-30T13:52:27.536Z,4.14
2023-01-30T13:55:11.274Z,4.17
2023-01-30T13:57:53.749Z,4.20
2023-01-30T14:00:27.418Z,4.38
2023-01-30T14:03:19.172Z,4.40
2023-01-30T14:05:56.916Z,4.56
2023-01-30T14:08:26.011Z,4.42
2023-01-30T14:11:46.164Z,4.38
2023-01-30T14:14:19.767Z,4.45
2023-01-30T14:17:11.968Z,4.41
2023-01-30T14:19:43.291Z,4.54
2023-01-30T14:22:34.135Z,4.37
2023-01-30T14:25:28.354Z,4.42
2023-01-30T14:28:02.016Z,4.38
2023-01-30T14:30:35.579Z,4.51
2023-01-30T14:33:04.543Z,4.69
2023-01-30T14:35:32.333Z,4.86
2023-01-30T14:38:17.803Z,4.95
2023-01-30T14:41:08.753Z,5.12
2023-01-30T14:43:42.481Z,4.95
2023-01-30T14:46:19.533Z,5.01
2023-01-30T14:48:54.090Z,5.10
2023-01-30T14:51:25.373Z,5.00
2023-01-30T14:54:11.268Z,4.83
2023-01-30T14:56:59.979Z,4.82
2023-01-30T14:59:38.461Z,4.86
2023-01-30T15:02:21.583Z,4.69
2023-01-30T15:05:04.282Z,4.72
2023-01-30T15:07:38.075Z,4.86
2023-01-30T15:10:07.243Z,4.99
2023-01-30T15:13:05.848Z,4.86
2023-01-30T15:16:02.505Z,5.09
2023-01-30T15:18:55.624Z,4.86
2023-01-30T15:21:25.645Z,4.89
2023-01-30T15:24:14.847Z,5.00
2023-01-30T15:26:57.603Z,4.76
2023-01-30T15:29:47.666Z,4.90
2023-01-30T15:32:24.578Z,4.89
2023-01-30T15:35:20.937Z,4.89
2023-01-30T15:37:53.092Z,5.00
2023-01-30T15:40:28.385Z,4.92
2023-01-30T15:43:22.141Z,4.90
2023-01-30T15:46:16.237Z,4.59
2023-01-30T15:48:59.402Z,4.51
2023-01-30T15:51:27.904Z,4.27
2023-01-30T15:53:56.170Z,4.20
2023-01-30T15:56:25.350Z,4.20
2023-01-30T15:58:52.819Z,4.17
2023-01-30T16:01:21.586Z,4.27
2023-01-30T16:03:50.300Z,4.17
2023-01-30T16:06:36.829Z,4.21
2023-01-30T16:09:05.433Z,4.00
2023-01-30T16:11:41.282Z,3.90
2023-01-30T16:14:13.553Z,3.82
2023-01-30T16:16:49.072Z,3.77
2023-01-30T16:19:29.682Z,3.62
2023-01-30T16:22:01.774Z,3.52
2023-01-30T16:24:32.080Z,3.54
2023-01-30T16:27:02.651Z,3.55
2023-01-30T16:29:31.893Z,3.46
2023-01-30T16:31:59.652Z,3.46
2023-01-30T16:34:35.101Z,3.55
2023-01-30T16:37:05.727Z,3.55
2023-01-30T16:39:35.032Z,3.62
2023-01-30T16:42:04.262Z,3.69
2023-01-30T16:44:32.144Z,3.65
2023-01-30T16:47:06.635Z,3.35
2023-01-30T16:49:37.330Z,3.39
2023-01-30T16:52:24.639Z,3.34
2023-01-30T16:54:57.119Z,3.25
2023-01-30T16:57:45.666Z,3.36
2023-01-30T17:00:20.855Z,3.18
2023-01-30T17:02:58.666Z,3.35
2023-01-30T17:05:27.800Z,3.52
2023-01-30T17:07:56.389Z,3.35
2023-01-30T17:10:29.943Z,3.25
2023-01-30T17:12:57.756Z,3.28
2023-01-30T17:15:29.886Z,3.32
2023-01-30T17:17:57.358Z,3.21
2023-01-30T17:20:24.816Z,3.17
2023-01-30T17:22:57.854Z,3.29
2023-01-30T17:25:38.300Z,3.27
2023-01-30T17:28:07.052Z,3.24
2023-01-30T17:30:35.296Z,3.18
2023-01-30T17:33:02.876Z,3.29
2023-01-30T17:35:30.255Z,3.32
2023-01-30T17:38:05.184Z,3.34
2023-01-30T17:40:37.214Z,3.24
2023-01-30T17:43:05.019Z,3.10
2023-01-30T17:45:32.304Z,3.21
2023-01-30T17:47:59.746Z,3.10
2023-01-30T17:50:28.612Z,3.25
2023-01-30T17:52:56.104Z,3.52
2023-01-30T17:55:23.413Z,3.31
2023-01-30T17:57:50.862Z,3.21
2023-01-30T18:00:19.544Z,3.15
2023-01-30T18:02:47.541Z,3.08
2023-01-30T18:05:15.079Z,3.12
2023-01-30T18:07:42.755Z,3.01
2023-01-30T18:10:15.254Z,2.91
2023-01-30T18:12:42.986Z,3.01
2023-01-30T18:15:11.937Z,3.04
2023-01-30T18:17:42.799Z,2.94
2023-01-30T18:20:11.865Z,2.90
2023-01-30T18:22:39.192Z,2.97
2023-01-30T18:25:07.215Z,2.93
2023-01-30T18:27:35.161Z,3.04
2023-01-30T18:30:03.559Z,3.01
2023-01-30T18:32:33.363Z,2.98
2023-01-30T18:35:03.533Z,3.03
2023-01-30T18:37:31.009Z,2.89
2023-01-30T18:39:58.372Z,2.79
2023-01-30T18:42:25.751Z,2.70
2023-01-30T18:44:53.158Z,2.52
2023-01-30T18:47:20.550Z,2.36
2023-01-30T18:49:47.909Z,2.36
2023-01-30T18:52:15.252Z,2.30
2023-01-30T18:54:43.419Z,2.32
2023-01-30T18:57:10.713Z,2.17
2023-01-30T18:59:39.768Z,2.30
2023-01-30T19:02:07.521Z,2.52
2023-01-30T19:04:34.974Z,2.15
2023-01-30T19:07:02.218Z,2.24
2023-01-30T19:09:29.689Z,2.17
2023-01-30T19:12:15.554Z,2.05
2023-01-30T19:14:42.979Z,2.07
2023-01-30T19:17:11.083Z,1.93
2023-01-30T19:19:38.504Z,1.82
2023-01-30T19:22:05.860Z,1.94
2023-01-30T19:24:33.266Z,1.95
2023-01-30T19:27:00.576Z,1.81
2023-01-30T19:29:27.894Z,1.85
2023-01-30T19:31:55.309Z,1.78
2023-01-30T19:34:22.743Z,1.78
2023-01-30T19:36:50.055Z,1.91
2023-01-30T19:39:17.747Z,2.14
2023-01-30T19:41:45.097Z,2.02
2023-01-30T19:44:12.584Z,1.84
2023-01-30T19:46:40.604Z,1.80
2023-01-30T19:49:08.012Z,2.08
2023-01-30T19:51:35.484Z,2.04
2023-01-30T19:54:05.066Z,2.05
2023-01-30T19:56:32.754Z,1.98
2023-01-30T19:59:00.608Z,1.88
2023-01-30T20:01:30.594Z,2.08
2023-01-30T20:03:58.993Z,2.11
2023-01-30T20:06:28.063Z,1.94
2023-01-30T20:08:58.427Z,1.77
2023-01-30T20:11:25.928Z,1.67
2023-01-30T20:13:53.518Z,1.60
2023-01-30T20:16:22.538Z,1.44
2023-01-30T20:19:00.530Z,1.46
2023-01-30T20:21:28.357Z,1.44
2023-01-30T20:23:55.851Z,1.44
2023-01-30T20:26:24.842Z,1.47
2023-01-30T20:28:54.637Z,1.71
2023-01-30T20:31:26.752Z,1.78
2023-01-30T20:33:56.755Z,1.87
2023-01-30T20:36:25.722Z,1.97
2023-01-30T20:38:53.443Z,2.09
2023-01-30T20:41:22.546Z,2.33
2023-01-30T20:43:52.366Z,2.53
2023-01-30T20:46:21.513Z,2.83
2023-01-30T20:48:49.423Z,3.01
2023-01-30T20:51:21.251Z,3.15
2023-01-30T20:53:50.364Z,3.38
2023-01-30T20:56:18.453Z,3.39
2023-01-30T20:58:45.907Z,3.40
2023-01-30T21:01:17.677Z,3.52
2023-01-30T21:03:46.263Z,3.62
2023-01-30T21:06:13.584Z,3.59
2023-01-30T21:09:01.183Z,3.63
2023-01-30T21:11:28.803Z,3.69
2023-01-30T21:13:56.094Z,3.70
2023-01-30T21:16:33.350Z,3.66
2023-01-30T21:19:03.885Z,3.65
2023-01-30T21:21:34.443Z,3.69
2023-01-30T21:24:04.465Z,3.89
2023-01-30T21:26:33.340Z,3.83
2023-01-30T21:29:01.282Z,3.75
2023-01-30T21:31:29.479Z,3.63
2023-01-30T21:33:57.742Z,3.46
2023-01-30T21:36:25.774Z,3.46
2023-01-30T21:39:11.586Z,3.43
2023-01-30T21:41:46.257Z,3.15
2023-01-30T21:44:13.989Z,3.25
2023-01-30T21:46:42.406Z,3.34
2023-01-30T21:49:09.777Z,3.42
2023-01-30T21:51:37.727Z,3.39
2023-01-30T21:54:05.133Z,3.45
2023-01-30T21:56:32.656Z,3.48
2023-01-30T21:59:00.875Z,3.40
2023-01-30T22:01:28.554Z,3.32
2023-01-30T22:03:57.028Z,3.25
2023-01-30T22:06:24.289Z,3.12
2023-01-30T22:08:58.640Z,3.08
2023-01-30T22:11:26.269Z,3.07
2023-01-30T22:13:53.790Z,3.10
2023-01-30T22:16:23.533Z,3.18
2023-01-30T22:18:55.620Z,3.27
2023-01-30T22:21:24.616Z,3.31
2023-01-30T22:23:52.852Z,3.39
2023-01-30T22:26:21.495Z,3.29
2023-01-30T22:28:48.988Z,3.45
2023-01-30T22:31:17.850Z,3.58
2023-01-30T22:33:45.878Z,3.63
2023-01-30T22:36:13.524Z,3.62
2023-01-30T22:38:48.256Z,3.56
2023-01-30T22:41:18.518Z,3.58
2023-01-30T22:43:55.543Z,3.54
2023-01-30T22:46:25.463Z,3.55
2023-01-30T22:48:53.199Z,3.48
2023-01-30T22:51:25.070Z,3.42
2023-01-30T22:53:54.412Z,3.35
2023-01-30T22:56:23.465Z,3.36
2023-01-30T22:58:51.085Z,3.29
2023-01-30T23:01:28.532Z,3.29
2023-01-30T23:03:58.262Z,3.24
2023-01-30T23:06:25.657Z,3.35
2023-01-30T23:08:53.724Z,3.35
2023-01-30T23:11:23.705Z,3.31
2023-01-30T23:13:52.327Z,3.24
2023-01-30T23:16:21.068Z,3.14
2023-01-30T23:19:01.719Z,3.17
2023-01-30T23:21:36.797Z,3.10
2023-01-30T23:24:18.550Z,3.10
2023-01-30T23:26:47.563Z,3.08
2023-01-30T23:29:16.717Z,3.11
2023-01-30T23:31:44.705Z,3.01
2023-01-30T23:34:14.343Z,3.00
2023-01-30T23:36:41.786Z,3.03
2023-01-30T23:39:12.083Z,2.96
2023-01-30T23:41:39.854Z,2.97
2023-01-30T23:44:07.318Z,3.05
2023-01-30T23:46:39.986Z,2.98
2023-01-30T23:49:09.738Z,2.98
2023-01-30T23:51:38.076Z,2.94
2023-01-30T23:54:06.140Z,2.96
2023-01-30T23:56:35.705Z,2.98
2023-01-30T23:59:03.827Z,3.12
